createdAt,value
2018-09-01T00:00:33.355Z,99.90
2018-09-01T00:03:02.376Z,99.90
2018-09-01T00:05:31.058Z,99.90
2018-09-01T00:07:59.991Z,99.90
2018-09-01T00:10:30.066Z,99.90
2018-09-01T00:12:59.329Z,99.90
2018-09-01T00:15:28.087Z,99.90
2018-09-01T00:17:57.915Z,99.90
2018-09-01T00:20:27.542Z,99.90
2018-09-01T00:22:56.216Z,99.90
2018-09-01T00:25:24.910Z,99.90
2018-09-01T00:27:53.633Z,99.90
2018-09-01T00:30:22.422Z,99.90
2018-09-01T00:32:51.168Z,99.90
2018-09-01T00:35:19.907Z,99.90
2018-09-01T00:37:54.852Z,99.90
2018-09-01T00:40:28.594Z,99.90
2018-09-01T00:43:00.626Z,99.90
2018-09-01T00:45:30.682Z,99.90
2018-09-01T00:47:59.352Z,99.90
2018-09-01T00:50:28.073Z,99.90
2018-09-01T00:52:56.801Z,99.90
2018-09-01T00:55:33.968Z,99.90
2018-09-01T00:58:03.359Z,99.90
2018-09-01T01:00:32.174Z,99.90
2018-09-01T01:03:01.491Z,99.90
2018-09-01T01:05:31.009Z,99.90
2018-09-01T01:07:59.711Z,99.90
2018-09-01T01:10:29.371Z,99.90
2018-09-01T01:12:58.214Z,99.90
2018-09-01T01:15:26.866Z,99.90
2018-09-01T01:17:55.794Z,99.90
2018-09-01T01:20:24.670Z,99.90
2018-09-01T01:22:53.851Z,99.90
2018-09-01T01:25:22.550Z,99.90
2018-09-01T01:27:52.468Z,99.90
2018-09-01T01:30:22.787Z,99.90
2018-09-01T01:32:51.602Z,99.90
2018-09-01T01:35:20.383Z,99.90
2018-09-01T01:37:49.050Z,99.90
2018-09-01T01:40:17.742Z,99.90
2018-09-01T01:42:46.551Z,99.90
2018-09-01T01:45:15.302Z,99.90
2018-09-01T01:47:44.030Z,99.90
2018-09-01T01:50:12.858Z,99.90
2018-09-01T01:52:41.526Z,99.90
2018-09-01T01:55:10.246Z,99.90
2018-09-01T01:57:44.150Z,99.90
2018-09-01T02:00:12.845Z,99.90
2018-09-01T02:02:41.488Z,99.90
2018-09-01T02:05:14.444Z,99.90
2018-09-01T02:07:43.159Z,99.90
2018-09-01T02:10:12.200Z,99.90
2018-09-01T02:12:40.870Z,99.90
2018-09-01T02:15:09.711Z,99.90
2018-09-01T02:17:38.382Z,99.90
2018-09-01T02:20:08.559Z,99.90
2018-09-01T02:22:37.248Z,99.90
2018-09-01T02:25:05.956Z,99.90
2018-09-01T02:27:34.691Z,99.90
2018-09-01T02:30:03.686Z,99.90
2018-09-01T02:32:33.010Z,99.90
2018-09-01T02:35:01.765Z,99.90
2018-09-01T02:37:30.484Z,99.90
2018-09-01T02:39:59.502Z,99.90
2018-09-01T02:42:28.239Z,99.90
2018-09-01T02:44:57.016Z,99.90
2018-09-01T02:47:27.344Z,99.90
2018-09-01T02:49:57.076Z,99.90
2018-09-01T02:52:25.759Z,99.90
2018-09-01T02:54:54.419Z,99.90
2018-09-01T02:57:23.180Z,99.90
2018-09-01T02:59:51.842Z,99.90
2018-09-01T03:02:25.796Z,99.90
2018-09-01T03:04:54.595Z,99.90
2018-09-01T03:07:23.346Z,99.90
2018-09-01T03:09:52.059Z,99.90
2018-09-01T03:12:20.850Z,99.90
2018-09-01T03:14:49.642Z,99.90
2018-09-01T03:17:18.374Z,99.90
2018-09-01T03:19:47.077Z,99.90
2018-09-01T03:22:15.851Z,99.90
2018-09-01T03:24:44.547Z,99.90
2018-09-01T03:27:13.264Z,99.90
2018-09-01T03:29:42.095Z,99.90
2018-09-01T03:32:10.827Z,99.90
2018-09-01T03:34:39.515Z,99.90
2018-09-01T03:37:08.291Z,99.90
2018-09-01T03:39:36.954Z,99.90
2018-09-01T03:42:05.702Z,99.90
2018-09-01T03:44:34.451Z,99.90
2018-09-01T03:47:03.435Z,99.90
2018-09-01T03:49:32.183Z,99.90
2018-09-01T03:52:05.042Z,99.90
2018-09-01T03:54:34.012Z,99.90
2018-09-01T03:57:02.788Z,99.90
2018-09-01T03:59:32.412Z,99.90
2018-09-01T04:02:05.402Z,99.90
2018-09-01T04:04:34.055Z,99.90
2018-09-01T04:07:02.758Z,99.90
2018-09-01T04:09:31.859Z,99.90
2018-09-01T04:12:00.545Z,99.90
2018-09-01T04:14:29.411Z,99.90
2018-09-01T04:16:58.152Z,99.90
2018-09-01T04:19:27.084Z,99.90
2018-09-01T04:21:55.736Z,99.90
2018-09-01T04:24:24.440Z,99.90
2018-09-01T04:26:54.486Z,99.90
2018-09-01T04:29:23.190Z,99.90
2018-09-01T04:31:51.884Z,99.90
2018-09-01T04:34:20.629Z,99.90
2018-09-01T04:36:50.141Z,99.90
2018-09-01T04:39:18.828Z,99.90
2018-09-01T04:41:47.643Z,99.90
2018-09-01T04:44:16.346Z,99.90
2018-09-01T04:46:45.220Z,99.90
2018-09-01T04:49:13.958Z,99.90
2018-09-01T04:51:45.205Z,99.90
2018-09-01T04:54:13.922Z,99.90
2018-09-01T04:56:42.651Z,99.90
2018-09-01T04:59:11.634Z,99.90
2018-09-01T05:01:40.920Z,99.90
2018-09-01T05:04:09.610Z,99.90
2018-09-01T05:06:39.334Z,99.90
2018-09-01T05:09:08.155Z,99.90
2018-09-01T05:11:36.851Z,99.90
2018-09-01T05:14:05.531Z,99.90
2018-09-01T05:16:34.285Z,99.90
2018-09-01T05:19:03.372Z,99.90
2018-09-01T05:22:51.436Z,99.90
2018-09-01T05:25:20.297Z,99.90
2018-09-01T05:27:49.020Z,99.90
2018-09-01T05:30:17.727Z,99.90
2018-09-01T05:32:46.548Z,99.90
2018-09-01T05:35:15.462Z,99.90
2018-09-01T05:37:44.170Z,99.90
2018-09-01T05:40:12.860Z,99.90
2018-09-01T05:42:41.571Z,99.90
2018-09-01T05:45:11.595Z,99.90
2018-09-01T05:47:40.344Z,99.90
2018-09-01T05:50:13.500Z,99.90
2018-09-01T05:52:43.427Z,99.90
2018-09-01T05:55:12.278Z,99.90
2018-09-01T05:57:42.301Z,99.90
2018-09-01T06:00:11.260Z,99.90
2018-09-01T06:02:42.596Z,99.90
2018-09-01T06:05:11.359Z,99.90
2018-09-01T06:07:40.523Z,99.90
2018-09-01T06:10:09.907Z,99.90
2018-09-01T06:12:38.687Z,99.90
2018-09-01T06:15:09.231Z,99.90
2018-09-01T06:17:39.314Z,99.90
2018-09-01T06:20:08.313Z,99.90
2018-09-01T06:22:39.162Z,99.90
2018-09-01T06:25:08.016Z,99.90
2018-09-01T06:27:40.296Z,99.90
2018-09-01T06:30:14.240Z,99.90
2018-09-01T06:32:43.552Z,99.90
2018-09-01T06:35:12.264Z,99.90
2018-09-01T06:37:44.756Z,99.90
2018-09-01T06:40:13.510Z,99.90
2018-09-01T06:42:42.260Z,99.90
2018-09-01T06:45:10.963Z,99.90
2018-09-01T06:47:39.693Z,99.90
2018-09-01T06:50:09.083Z,99.90
2018-09-01T06:52:37.894Z,99.90
2018-09-01T06:55:06.767Z,99.90
2018-09-01T06:57:35.836Z,99.90
2018-09-01T07:00:07.983Z,99.90
2018-09-01T07:02:40.549Z,99.90
2018-09-01T07:05:09.347Z,99.90
2018-09-01T07:07:38.144Z,99.90
2018-09-01T07:10:08.799Z,99.90
2018-09-01T07:12:37.547Z,99.90
2018-09-01T07:15:06.566Z,99.90
2018-09-01T07:17:40.210Z,99.90
2018-09-01T07:20:10.742Z,99.90
2018-09-01T07:22:42.771Z,99.90
2018-09-01T07:25:11.654Z,99.90
2018-09-01T07:27:41.518Z,99.90
2018-09-01T07:30:12.135Z,99.90
2018-09-01T07:32:41.324Z,99.90
2018-09-01T07:35:10.811Z,99.90
2018-09-01T07:37:39.604Z,99.90
2018-09-01T07:40:10.065Z,99.90
2018-09-01T07:42:40.667Z,99.90
2018-09-01T07:45:09.474Z,99.90
2018-09-01T07:47:39.223Z,99.90
2018-09-01T07:50:10.211Z,99.90
2018-09-01T07:52:41.458Z,99.90
2018-09-01T07:55:10.338Z,99.90
2018-09-01T07:57:39.008Z,99.90
2018-09-01T08:00:08.206Z,99.90
2018-09-01T08:02:37.706Z,99.90
2018-09-01T08:05:07.416Z,99.90
2018-09-01T08:07:37.271Z,99.90
2018-09-01T08:10:11.664Z,99.90
2018-09-01T08:12:44.188Z,99.90
2018-09-01T08:15:12.996Z,99.90
2018-09-01T08:17:41.893Z,99.90
2018-09-01T08:20:11.059Z,99.90
2018-09-01T08:22:39.901Z,99.90
2018-09-01T08:25:10.123Z,99.90
2018-09-01T08:27:41.261Z,99.90
2018-09-01T08:30:10.409Z,99.90
2018-09-01T08:32:39.377Z,99.90
2018-09-01T08:35:09.490Z,99.90
2018-09-01T08:37:40.140Z,99.90
2018-09-01T08:40:09.296Z,99.90
2018-09-01T08:42:38.024Z,99.90
2018-09-01T08:45:08.589Z,99.90
2018-09-01T08:47:42.867Z,99.90
2018-09-01T08:50:18.170Z,99.90
2018-09-01T08:52:47.338Z,99.90
2018-09-01T08:55:17.282Z,99.90
2018-09-01T08:57:46.628Z,99.90
2018-09-01T09:00:17.394Z,99.90
2018-09-01T09:02:48.664Z,99.90
2018-09-01T09:05:19.242Z,99.90
2018-09-01T09:07:50.534Z,99.90
2018-09-01T09:10:26.710Z,99.90
2018-09-01T09:12:57.631Z,99.90
2018-09-01T09:15:29.270Z,99.90
2018-09-01T09:18:07.175Z,99.90
2018-09-01T09:20:37.264Z,99.90
2018-09-01T09:23:07.385Z,99.90
2018-09-01T09:25:40.278Z,99.90
2018-09-01T09:28:14.877Z,99.90
2018-09-01T09:30:43.611Z,99.90
2018-09-01T09:33:18.652Z,97.40
2018-09-01T09:35:48.684Z,95.00
2018-09-01T09:38:20.743Z,96.80
2018-09-01T09:40:49.821Z,98.80
2018-09-01T09:43:20.129Z,97.80
2018-09-01T09:45:49.631Z,95.80
2018-09-01T09:48:21.189Z,92.70
2018-09-01T09:50:51.540Z,92.60
2018-09-01T09:53:22.382Z,94.10
2018-09-01T09:55:54.282Z,93.90
2018-09-01T09:58:24.469Z,92.70
2018-09-01T10:00:58.329Z,93.00
2018-09-01T10:03:27.198Z,92.30
2018-09-01T10:05:56.157Z,93.20
2018-09-01T10:08:28.598Z,92.50
2018-09-01T10:10:57.440Z,90.10
2018-09-01T10:13:29.641Z,88.80
2018-09-01T10:15:58.593Z,83.10
2018-09-01T10:18:27.293Z,81.30
2018-09-01T10:20:57.697Z,80.50
2018-09-01T10:23:27.628Z,79.40
2018-09-01T10:25:57.236Z,75.90
2018-09-01T10:28:26.231Z,78.40
2018-09-01T10:30:56.820Z,77.40
2018-09-01T10:33:26.000Z,75.60
2018-09-01T10:35:56.482Z,73.90
2018-09-01T10:38:25.283Z,71.20
2018-09-01T10:40:54.044Z,69.90
2018-09-01T10:44:48.238Z,72.10
2018-09-01T10:47:18.444Z,75.10
2018-09-01T10:51:10.819Z,75.10
2018-09-01T10:53:40.326Z,75.40
2018-09-01T10:56:09.124Z,72.40
2018-09-01T10:58:37.819Z,71.70
2018-09-01T11:01:06.955Z,71.80
2018-09-01T11:03:36.365Z,74.40
2018-09-01T11:06:06.328Z,75.60
2018-09-01T11:08:37.173Z,76.20
2018-09-01T11:11:09.580Z,76.70
2018-09-01T11:13:39.040Z,79.00
2018-09-01T11:16:10.054Z,79.00
2018-09-01T11:18:39.361Z,77.20
2018-09-01T11:21:08.174Z,77.10
2018-09-01T11:23:38.338Z,78.70
2018-09-01T11:26:07.134Z,77.50
2018-09-01T11:28:37.636Z,79.30
2018-09-01T11:31:08.380Z,81.20
2018-09-01T11:33:37.170Z,81.70
2018-09-01T11:36:06.202Z,81.10
2018-09-01T11:38:34.918Z,79.70
2018-09-01T11:41:04.083Z,80.80
2018-09-01T11:43:33.049Z,84.40
2018-09-01T11:46:03.645Z,81.90
2018-09-01T11:48:36.053Z,81.10
2018-09-01T11:51:05.009Z,81.10
2018-09-01T11:53:36.925Z,82.10
2018-09-01T11:56:07.664Z,84.10
2018-09-01T11:58:36.453Z,84.20
2018-09-01T12:01:07.668Z,84.70
2018-09-01T12:03:36.506Z,84.80
2018-09-01T12:06:08.606Z,84.20
2018-09-01T12:08:38.664Z,84.80
2018-09-01T12:11:12.489Z,86.20
2018-09-01T12:13:42.650Z,83.90
2018-09-01T12:16:11.930Z,84.70
2018-09-01T12:18:41.114Z,82.90
2018-09-01T12:21:10.649Z,84.10
2018-09-01T12:23:40.205Z,84.70
2018-09-01T12:26:09.265Z,84.30
2018-09-01T12:28:39.063Z,83.90
2018-09-01T12:31:08.541Z,83.40
2018-09-01T12:33:38.638Z,85.50
2018-09-01T12:36:09.399Z,85.10
2018-09-01T12:38:38.253Z,85.80
2018-09-01T12:41:07.252Z,84.80
2018-09-01T12:43:36.490Z,85.40
2018-09-01T12:46:05.287Z,87.20
2018-09-01T12:48:34.176Z,88.10
2018-09-01T12:51:03.331Z,85.20
2018-09-01T12:53:32.155Z,84.50
2018-09-01T12:56:01.658Z,82.00
2018-09-01T12:58:38.475Z,82.20
2018-09-01T13:06:08.179Z,81.90
2018-09-01T13:08:38.319Z,83.20
2018-09-01T13:11:08.723Z,82.80
2018-09-01T13:13:38.388Z,80.50
2018-09-01T13:16:10.058Z,80.10
2018-09-01T13:18:40.112Z,81.90
2018-09-01T13:21:10.158Z,82.50
2018-09-01T13:23:40.951Z,84.70
2018-09-01T13:26:12.843Z,85.10
2018-09-01T13:28:45.049Z,85.20
2018-09-01T13:31:16.200Z,86.40
2018-09-01T13:33:45.363Z,84.40
2018-09-01T13:36:14.515Z,84.30
2018-09-01T13:38:46.271Z,83.10
2018-09-01T13:41:16.320Z,83.20
2018-09-01T13:43:45.281Z,81.50
2018-09-01T13:46:14.605Z,82.40
2018-09-01T13:48:44.164Z,82.60
2018-09-01T13:51:14.402Z,84.50
2018-09-01T13:53:43.131Z,86.20
2018-09-01T13:56:13.738Z,85.30
2018-09-01T13:58:58.142Z,84.30
2018-09-01T14:01:28.718Z,83.30
2018-09-01T14:03:57.499Z,83.70
2018-09-01T14:06:28.574Z,83.30
2018-09-01T14:08:59.972Z,84.40
2018-09-01T14:11:32.650Z,84.40
2018-09-01T14:14:11.266Z,84.80
2018-09-01T14:16:45.446Z,86.30
2018-09-01T14:19:20.669Z,84.80
2018-09-01T14:21:52.150Z,86.30
2018-09-01T14:24:21.247Z,85.70
2018-09-01T14:26:53.651Z,86.40
2018-09-01T14:29:23.028Z,86.80
2018-09-01T14:31:52.396Z,86.10
2018-09-01T14:34:22.469Z,88.50
2018-09-01T14:36:51.194Z,86.50
2018-09-01T14:39:20.191Z,87.30
2018-09-01T14:41:49.527Z,87.40
2018-09-01T14:44:23.625Z,87.80
2018-09-01T14:46:53.401Z,84.60
2018-09-01T14:49:22.119Z,85.00
2018-09-01T14:51:54.351Z,84.40
2018-09-01T14:54:23.307Z,85.80
2018-09-01T14:56:52.671Z,86.50
2018-09-01T14:59:21.824Z,87.00
2018-09-01T15:01:50.508Z,85.40
2018-09-01T15:04:22.300Z,85.90
2018-09-01T15:06:51.332Z,86.70
2018-09-01T15:09:22.581Z,86.10
2018-09-01T15:11:53.644Z,86.50
2018-09-01T15:14:23.152Z,85.40
2018-09-01T15:16:53.600Z,86.00
2018-09-01T15:19:29.386Z,86.00
2018-09-01T15:22:04.787Z,86.80
2018-09-01T15:24:34.062Z,87.50
2018-09-01T15:27:04.017Z,86.40
2018-09-01T15:29:34.001Z,87.90
2018-09-01T15:32:03.384Z,88.60
2018-09-01T15:34:32.385Z,88.70
2018-09-01T15:37:03.617Z,89.30
2018-09-01T15:39:33.528Z,88.80
2018-09-01T15:42:04.310Z,87.90
2018-09-01T15:44:33.058Z,88.70
2018-09-01T15:47:03.336Z,87.70
2018-09-01T15:49:34.157Z,87.70
2018-09-01T15:52:04.040Z,87.80
2018-09-01T15:54:33.977Z,88.50
2018-09-01T15:57:04.044Z,88.30
2018-09-01T15:59:34.631Z,88.40
2018-09-01T16:02:03.964Z,89.40
2018-09-01T16:04:33.424Z,89.30
2018-09-01T16:07:02.611Z,87.80
2018-09-01T16:09:31.634Z,87.10
2018-09-01T16:12:02.008Z,88.30
2018-09-01T16:14:31.263Z,89.00
2018-09-01T16:17:00.065Z,88.80
2018-09-01T16:20:48.341Z,89.60
2018-09-01T16:23:18.801Z,90.00
2018-09-01T16:25:48.171Z,90.50
2018-09-01T16:28:19.030Z,90.70
2018-09-01T16:30:48.181Z,90.70
2018-09-01T16:33:17.424Z,90.90
2018-09-01T16:35:46.266Z,90.70
2018-09-01T16:38:15.783Z,90.60
2018-09-01T16:40:45.267Z,90.50
2018-09-01T16:43:16.540Z,90.50
2018-09-01T16:45:46.440Z,90.60
2018-09-01T16:48:16.587Z,90.40
2018-09-01T16:50:48.707Z,90.40
2018-09-01T16:53:17.497Z,90.50
2018-09-01T16:55:47.035Z,90.30
2018-09-01T16:58:18.184Z,90.60
2018-09-01T17:00:49.257Z,90.80
2018-09-01T17:03:19.584Z,90.90
2018-09-01T17:05:48.780Z,91.20
2018-09-01T17:08:19.185Z,91.40
2018-09-01T17:10:48.870Z,91.60
2018-09-01T17:13:19.227Z,91.70
2018-09-01T17:15:49.142Z,91.80
2018-09-01T17:18:24.883Z,92.20
2018-09-01T17:20:54.349Z,92.20
2018-09-01T17:23:24.404Z,92.60
2018-09-01T17:25:53.192Z,93.20
2018-09-01T17:28:22.471Z,92.90
2018-09-01T17:30:51.374Z,93.00
2018-09-01T17:33:22.172Z,92.90
2018-09-01T17:35:51.330Z,92.80
2018-09-01T17:38:20.325Z,92.90
2018-09-01T17:40:49.111Z,93.20
2018-09-01T17:43:18.129Z,93.30
2018-09-01T17:45:47.615Z,93.40
2018-09-01T17:48:16.564Z,93.70
2018-09-01T17:50:47.615Z,93.80
2018-09-01T17:53:16.397Z,94.10
2018-09-01T17:55:45.278Z,94.20
2018-09-01T17:58:14.352Z,94.30
2018-09-01T18:00:43.203Z,94.80
2018-09-01T18:03:13.775Z,94.90
2018-09-01T18:05:44.238Z,95.40
2018-09-01T18:08:13.389Z,95.90
2018-09-01T18:10:42.245Z,96.20
2018-09-01T18:13:12.137Z,95.90
2018-09-01T18:15:42.563Z,96.00
2018-09-01T18:18:13.292Z,96.00
2018-09-01T18:20:44.280Z,96.90
2018-09-01T18:23:13.179Z,97.00
2018-09-01T18:25:42.257Z,97.80
2018-09-01T18:28:13.847Z,98.20
2018-09-01T18:30:44.211Z,98.60
2018-09-01T18:33:17.446Z,99.10
2018-09-01T18:35:48.934Z,99.40
2018-09-01T18:38:19.527Z,99.90
2018-09-01T18:40:49.397Z,99.90
2018-09-01T18:43:18.105Z,99.90
2018-09-01T18:45:49.198Z,99.90
2018-09-01T18:48:19.196Z,99.90
2018-09-01T18:50:49.146Z,99.90
2018-09-01T18:53:20.694Z,99.90
2018-09-01T18:55:52.051Z,99.90
2018-09-01T18:58:21.344Z,99.90
2018-09-01T19:00:50.145Z,99.90
2018-09-01T19:03:19.738Z,99.90
2018-09-01T19:05:49.181Z,99.90
2018-09-01T19:08:18.770Z,99.90
2018-09-01T19:10:47.672Z,99.90
2018-09-01T19:13:18.400Z,99.90
2018-09-01T19:15:49.417Z,99.90
2018-09-01T19:18:23.930Z,99.90
2018-09-01T19:20:57.783Z,99.90
2018-09-01T19:23:35.841Z,99.90
2018-09-01T19:26:06.492Z,99.90
2018-09-01T19:28:35.361Z,99.90
2018-09-01T19:31:05.886Z,99.90
2018-09-01T19:33:38.311Z,99.90
2018-09-01T19:36:07.766Z,99.90
2018-09-01T19:38:37.874Z,99.90
2018-09-01T19:41:09.644Z,99.90
2018-09-01T19:43:45.002Z,99.90
2018-09-01T19:46:13.873Z,99.90
2018-09-01T19:48:44.282Z,99.90
2018-09-01T19:51:23.301Z,99.90
2018-09-01T19:53:55.657Z,99.90
2018-09-01T19:56:25.407Z,99.90
2018-09-01T19:58:57.302Z,99.90
2018-09-01T20:01:28.496Z,99.90
2018-09-01T20:03:58.925Z,99.90
2018-09-01T20:09:07.322Z,99.90
2018-09-01T20:11:41.261Z,99.90
2018-09-01T20:14:12.343Z,99.90
2018-09-01T20:16:43.134Z,99.90
2018-09-01T20:19:15.140Z,99.90
2018-09-01T20:21:44.676Z,99.90
2018-09-01T20:24:16.177Z,99.90
2018-09-01T20:26:46.726Z,99.90
2018-09-01T20:29:18.330Z,99.90
2018-09-01T20:31:49.577Z,99.90
2018-09-01T20:34:20.296Z,99.90
2018-09-01T20:36:52.808Z,99.90
2018-09-01T20:39:30.195Z,99.90
2018-09-01T20:41:58.977Z,99.90
2018-09-01T20:44:30.938Z,99.90
2018-09-01T20:46:59.934Z,99.90
2018-09-01T20:49:28.778Z,99.90
2018-09-01T20:51:58.316Z,99.90
2018-09-01T20:54:30.403Z,99.90
2018-09-01T20:57:05.502Z,99.90
2018-09-01T21:00:00.137Z,99.90
2018-09-01T21:02:35.457Z,99.90
2018-09-01T21:05:11.223Z,99.90
2018-09-01T21:07:57.082Z,99.90
2018-09-01T21:10:28.676Z,99.90
2018-09-01T21:12:57.407Z,99.90
2018-09-01T21:15:26.481Z,99.90
2018-09-01T21:17:56.340Z,99.90
2018-09-01T21:20:25.309Z,99.90
2018-09-01T21:22:55.432Z,99.90
2018-09-01T21:25:27.419Z,99.90
2018-09-01T21:27:56.185Z,99.90
2018-09-01T21:30:26.111Z,99.90
2018-09-01T21:32:57.783Z,99.90
2018-09-01T21:35:28.367Z,99.90
2018-09-01T21:38:01.204Z,99.90
2018-09-01T21:40:31.729Z,99.90
2018-09-01T21:43:07.017Z,99.90
2018-09-01T21:45:36.413Z,99.90
2018-09-01T21:48:07.291Z,99.90
2018-09-01T21:50:38.586Z,99.90
2018-09-01T21:53:08.947Z,99.90
2018-09-01T21:55:38.619Z,99.90
2018-09-01T21:58:07.820Z,99.90
2018-09-01T22:00:43.102Z,99.90
2018-09-01T22:03:14.260Z,99.90
2018-09-01T22:05:43.379Z,99.90
2018-09-01T22:08:14.267Z,99.90
2018-09-01T22:10:43.255Z,99.90
2018-09-01T22:13:12.117Z,99.90
2018-09-01T22:15:40.884Z,99.90
2018-09-01T22:18:09.606Z,99.90
2018-09-01T22:20:39.008Z,99.90
2018-09-01T22:23:07.640Z,99.90
2018-09-01T22:25:36.982Z,99.90
2018-09-01T22:28:06.743Z,99.90
2018-09-01T22:30:35.834Z,99.90
2018-09-01T22:33:09.323Z,99.90
2018-09-01T22:35:38.576Z,99.90
2018-09-01T22:38:09.786Z,99.90
2018-09-01T22:40:39.120Z,99.90
2018-09-01T22:43:12.094Z,99.90
2018-09-01T22:45:41.060Z,99.90
2018-09-01T22:48:10.576Z,99.90
2018-09-01T22:50:39.274Z,99.90
2018-09-01T22:53:10.053Z,99.90
2018-09-01T22:55:38.768Z,99.90
2018-09-01T22:58:09.268Z,99.90
2018-09-01T23:00:39.540Z,99.90
2018-09-01T23:03:09.274Z,99.90
2018-09-01T23:05:37.970Z,99.90
2018-09-01T23:08:09.227Z,99.90
2018-09-01T23:10:40.367Z,99.90
2018-09-01T23:13:09.143Z,99.90
2018-09-01T23:15:37.828Z,99.90
2018-09-01T23:18:07.235Z,99.90
2018-09-01T23:20:36.936Z,99.90
2018-09-01T23:23:08.620Z,99.90
2018-09-01T23:25:37.848Z,99.90
2018-09-01T23:28:10.154Z,99.90
2018-09-01T23:30:41.170Z,99.90
2018-09-01T23:33:11.605Z,99.90
2018-09-01T23:35:40.572Z,99.90
2018-09-01T23:38:09.309Z,99.90
2018-09-01T23:40:40.010Z,99.90
2018-09-01T23:43:10.199Z,99.90
2018-09-01T23:45:41.169Z,99.90
2018-09-01T23:48:15.450Z,99.90
2018-09-01T23:50:44.506Z,99.90
2018-09-01T23:53:13.848Z,99.90
2018-09-01T23:55:42.582Z,99.90
2018-09-01T23:58:11.301Z,99.90
